createdAt,value
2023-01-10T00:04:42.795Z,6.71
2023-01-10T00:09:50.899Z,6.87
2023-01-10T00:14:55.357Z,7.01
2023-01-10T00:19:59.988Z,7.09
2023-01-10T00:25:09.910Z,7.16
2023-01-10T00:30:15.513Z,7.26
2023-01-10T00:35:20.511Z,7.35
2023-01-10T00:40:28.997Z,7.43
2023-01-10T00:45:32.594Z,7.48
2023-01-10T00:50:40.143Z,7.53
2023-01-10T00:55:47.723Z,7.58
2023-01-10T01:00:55.116Z,7.58
2023-01-10T01:06:13.248Z,7.60
2023-01-10T01:11:19.618Z,7.68
2023-01-10T01:16:24.618Z,7.69
2023-01-10T01:21:32.363Z,7.66
2023-01-10T01:26:37.895Z,7.66
2023-01-10T01:31:53.119Z,7.55
2023-01-10T01:36:59.003Z,7.50
2023-01-10T01:42:10.783Z,7.45
2023-01-10T01:47:25.379Z,7.53
2023-01-10T01:52:32.896Z,7.64
2023-01-10T01:57:39.764Z,7.72
2023-01-10T02:03:02.193Z,7.71
2023-01-10T02:08:11.438Z,7.73
2023-01-10T02:13:22.190Z,7.76
2023-01-10T02:18:27.744Z,7.80
2023-01-10T02:24:03.043Z,7.82
2023-01-10T02:30:18.351Z,7.85
2023-01-10T02:41:32.422Z,7.61
2023-01-10T02:46:39.916Z,7.57
2023-01-10T02:51:54.404Z,7.61
2023-01-10T02:57:24.231Z,7.73
2023-01-10T03:03:00.743Z,7.74
2023-01-10T03:08:18.529Z,7.72
2023-01-10T03:13:37.421Z,7.65
2023-01-10T03:19:03.655Z,7.61
2023-01-10T03:24:35.369Z,7.58
2023-01-10T03:29:46.761Z,7.44
2023-01-10T03:34:55.165Z,7.44
2023-01-10T03:40:21.729Z,7.54
2023-01-10T03:45:52.758Z,7.58
2023-01-10T03:51:05.719Z,7.61
2023-01-10T03:56:18.299Z,7.60
2023-01-10T04:01:24.287Z,7.62
2023-01-10T04:06:31.996Z,7.59
2023-01-10T04:11:39.992Z,7.64
2023-01-10T04:16:55.100Z,7.63
2023-01-10T04:21:59.825Z,7.66
2023-01-10T04:27:05.509Z,7.64
2023-01-10T04:32:35.790Z,7.71
2023-01-10T04:37:43.186Z,7.69
2023-01-10T04:42:47.116Z,7.74
2023-01-10T04:47:57.711Z,7.77
2023-01-10T04:53:17.888Z,7.79
2023-01-10T04:58:26.450Z,7.81
2023-01-10T05:03:43.288Z,7.87
2023-01-10T05:09:00.984Z,7.93
2023-01-10T05:14:11.449Z,7.96
2023-01-10T05:19:25.617Z,8.01
2023-01-10T05:24:30.597Z,8.00
2023-01-10T05:29:36.929Z,7.98
2023-01-10T05:34:47.016Z,8.01
2023-01-10T05:39:53.872Z,8.00
2023-01-10T05:44:59.683Z,7.96
2023-01-10T05:50:18.957Z,7.92
2023-01-10T05:55:30.702Z,7.93
2023-01-10T06:00:40.194Z,7.96
2023-01-10T06:05:50.492Z,8.02
2023-01-10T06:10:55.891Z,8.01
2023-01-10T06:15:59.501Z,8.04
2023-01-10T06:21:05.825Z,8.08
2023-01-10T06:26:13.419Z,8.13
2023-01-10T06:31:17.873Z,8.14
2023-01-10T06:36:24.323Z,8.18
2023-01-10T06:41:30.562Z,8.20
2023-01-10T06:46:41.288Z,8.26
2023-01-10T06:52:07.266Z,8.29
2023-01-10T06:57:17.574Z,8.28
2023-01-10T07:02:23.915Z,8.28
2023-01-10T07:07:34.163Z,8.29
2023-01-10T07:12:40.298Z,8.28
2023-01-10T07:17:44.530Z,8.26
2023-01-10T07:22:57.241Z,8.31
2023-01-10T07:28:01.574Z,8.30
2023-01-10T07:33:11.360Z,8.35
2023-01-10T07:38:18.294Z,8.35
2023-01-10T07:43:29.376Z,8.37
2023-01-10T07:48:35.405Z,8.37
2023-01-10T07:53:58.958Z,8.41
2023-01-10T07:59:03.358Z,8.44
2023-01-10T08:04:13.551Z,8.46
2023-01-10T08:09:22.868Z,8.43
2023-01-10T08:14:32.178Z,8.40
2023-01-10T08:19:38.182Z,8.40
2023-01-10T08:24:46.132Z,8.45
2023-01-10T08:29:55.009Z,8.55
2023-01-10T08:35:03.576Z,8.62
2023-01-10T08:40:12.277Z,8.71
2023-01-10T08:45:18.067Z,8.79
2023-01-10T08:50:35.025Z,8.88
2023-01-10T08:55:47.203Z,8.94
2023-01-10T09:00:59.086Z,8.98
2023-01-10T09:06:07.826Z,8.99
2023-01-10T09:11:18.301Z,8.98
2023-01-10T09:16:22.128Z,9.05
2023-01-10T09:21:26.384Z,9.06
2023-01-10T09:26:33.110Z,9.10
2023-01-10T09:31:38.478Z,9.18
2023-01-10T09:36:45.735Z,9.25
2023-01-10T09:42:14.567Z,9.33
2023-01-10T09:47:36.503Z,9.36
2023-01-10T09:53:06.530Z,9.39
2023-01-10T09:58:16.973Z,9.44
2023-01-10T10:03:28.097Z,9.49
2023-01-10T10:08:34.732Z,9.57
2023-01-10T10:13:54.933Z,9.62
2023-01-10T10:19:08.320Z,9.68
2023-01-10T10:24:45.039Z,9.68
2023-01-10T10:30:20.612Z,9.70
2023-01-10T10:35:31.602Z,9.76
2023-01-10T10:40:53.726Z,9.77
2023-01-10T10:46:06.734Z,9.87
2023-01-10T10:51:14.545Z,9.82
2023-01-10T10:56:23.077Z,9.86
2023-01-10T11:01:30.513Z,9.86
2023-01-10T11:06:41.042Z,9.83
2023-01-10T11:11:50.841Z,9.92
2023-01-10T11:17:20.079Z,9.90
2023-01-10T11:22:24.307Z,9.85
2023-01-10T11:27:34.906Z,9.88
2023-01-10T11:32:56.053Z,10.14
2023-01-10T11:38:06.468Z,10.39
2023-01-10T11:43:27.078Z,10.46
2023-01-10T11:49:05.402Z,10.44
2023-01-10T11:54:18.174Z,10.42
2023-01-10T11:59:25.879Z,10.41
2023-01-10T12:04:36.518Z,10.38
2023-01-10T12:09:42.789Z,10.43
2023-01-10T12:14:49.470Z,10.35
2023-01-10T12:20:01.027Z,10.35
2023-01-10T12:25:19.352Z,10.32
2023-01-10T12:30:32.959Z,10.32
2023-01-10T12:35:46.783Z,10.26
2023-01-10T12:41:00.493Z,10.24
2023-01-10T12:46:33.614Z,10.20
2023-01-10T12:51:48.082Z,10.13
2023-01-10T12:56:54.185Z,10.16
2023-01-10T13:02:04.894Z,10.17
2023-01-10T13:07:20.993Z,10.22
2023-01-10T13:12:36.633Z,10.25
2023-01-10T13:17:49.598Z,10.24
2023-01-10T13:22:59.974Z,10.28
2023-01-10T13:28:14.489Z,10.21
2023-01-10T13:33:30.533Z,10.12
2023-01-10T13:38:49.527Z,10.07
2023-01-10T13:44:08.729Z,10.04
2023-01-10T13:49:47.122Z,10.03
2023-01-10T13:55:00.681Z,9.99
2023-01-10T14:00:23.480Z,9.98
2023-01-10T14:05:48.652Z,9.95
2023-01-10T14:11:10.450Z,9.93
2023-01-10T14:16:31.539Z,9.86
2023-01-10T14:21:48.459Z,9.81
2023-01-10T14:27:01.580Z,9.80
2023-01-10T14:32:19.560Z,9.75
2023-01-10T14:37:33.000Z,9.76
2023-01-10T14:42:40.893Z,9.65
2023-01-10T14:47:50.171Z,9.65
2023-01-10T14:52:54.154Z,9.58
2023-01-10T14:58:11.439Z,9.53
2023-01-10T15:03:20.868Z,9.42
2023-01-10T15:08:34.510Z,9.34
2023-01-10T15:13:51.044Z,9.35
2023-01-10T15:18:56.741Z,9.39
2023-01-10T15:24:03.132Z,9.47
2023-01-10T15:29:15.358Z,9.43
2023-01-10T15:34:24.975Z,9.38
2023-01-10T15:39:32.430Z,9.36
2023-01-10T15:44:45.437Z,9.34
2023-01-10T15:49:55.595Z,9.31
2023-01-10T15:55:02.700Z,9.23
2023-01-10T16:00:23.813Z,9.21
2023-01-10T16:05:32.975Z,9.12
2023-01-10T16:10:38.690Z,9.00
2023-01-10T16:15:54.983Z,8.92
2023-01-10T16:21:08.557Z,8.82
2023-01-10T16:26:21.779Z,8.77
2023-01-10T16:36:55.429Z,8.79
2023-01-10T16:42:17.579Z,8.76
2023-01-10T16:47:46.924Z,8.72
2023-01-10T16:58:34.644Z,8.70
2023-01-10T17:04:00.893Z,8.66
2023-01-10T17:09:08.674Z,8.70
2023-01-10T17:14:19.355Z,8.71
2023-01-10T17:19:26.751Z,8.70
2023-01-10T17:24:32.342Z,8.68
2023-01-10T17:29:38.027Z,8.63
2023-01-10T17:34:45.791Z,8.57
2023-01-10T17:40:10.391Z,8.54
2023-01-10T17:45:16.721Z,8.47
2023-01-10T17:50:24.857Z,8.35
2023-01-10T17:55:35.776Z,8.25
2023-01-10T18:06:22.800Z,8.03
2023-01-10T18:11:26.724Z,7.94
2023-01-10T18:16:29.916Z,7.87
2023-01-10T18:21:34.593Z,7.81
2023-01-10T18:26:39.824Z,7.76
2023-01-10T18:31:43.904Z,7.72
2023-01-10T18:36:48.524Z,7.65
2023-01-10T18:41:51.783Z,7.61
2023-01-10T18:46:55.284Z,7.56
2023-01-10T18:52:00.090Z,7.51
2023-01-10T18:57:03.253Z,7.42
2023-01-10T19:02:07.064Z,7.37
2023-01-10T19:07:11.638Z,7.30
2023-01-10T19:12:14.791Z,7.25
2023-01-10T19:17:18.483Z,7.22
2023-01-10T19:22:23.554Z,7.20
2023-01-10T19:27:27.334Z,7.19
2023-01-10T19:32:30.507Z,7.15
2023-01-10T19:37:35.901Z,7.13
2023-01-10T19:42:39.844Z,7.07
2023-01-10T19:47:43.180Z,7.05
2023-01-10T19:52:49.818Z,7.05
2023-01-10T19:57:54.409Z,7.02
2023-01-10T20:03:01.532Z,7.00
2023-01-10T20:08:06.707Z,6.94
2023-01-10T20:13:10.501Z,6.90
2023-01-10T20:18:14.062Z,6.87
2023-01-10T20:23:22.685Z,6.86
2023-01-10T20:28:26.671Z,6.84
2023-01-10T20:33:34.427Z,6.84
2023-01-10T20:38:41.688Z,6.83
2023-01-10T20:43:45.989Z,6.81
2023-01-10T20:48:53.923Z,6.82
2023-01-10T20:53:59.772Z,6.80
2023-01-10T20:59:03.929Z,6.80
2023-01-10T21:04:14.499Z,6.80
2023-01-10T21:09:21.094Z,6.82
2023-01-10T21:14:27.896Z,6.83
2023-01-10T21:19:34.468Z,6.81
2023-01-10T21:24:39.681Z,6.81
2023-01-10T21:29:42.818Z,6.80
2023-01-10T21:34:46.075Z,6.79
2023-01-10T21:39:57.169Z,6.80
2023-01-10T21:45:01.095Z,6.79
2023-01-10T21:50:08.394Z,6.75
2023-01-10T21:55:16.301Z,6.72
2023-01-10T22:00:28.706Z,6.68
2023-01-10T22:05:54.556Z,6.67
2023-01-10T22:11:00.389Z,6.71
2023-01-10T22:16:05.138Z,6.77
2023-01-10T22:21:10.883Z,6.84
2023-01-10T22:26:18.249Z,6.87
2023-01-10T22:31:25.937Z,6.93
2023-01-10T22:36:29.267Z,6.99
2023-01-10T22:41:33.906Z,7.03
2023-01-10T22:46:36.971Z,7.07
2023-01-10T22:51:40.017Z,7.09
2023-01-10T22:56:44.675Z,7.14
2023-01-10T23:01:49.621Z,7.15
2023-01-10T23:06:52.842Z,7.16
2023-01-10T23:11:58.440Z,7.17
2023-01-10T23:17:01.854Z,7.20
2023-01-10T23:22:05.057Z,7.22
2023-01-10T23:27:09.686Z,7.26
2023-01-10T23:32:12.783Z,7.28
2023-01-10T23:37:16.072Z,7.33
2023-01-10T23:42:20.645Z,7.33
2023-01-10T23:47:32.478Z,7.33
2023-01-10T23:52:35.745Z,7.28
2023-01-10T23:57:40.278Z,7.19
